createdAt,value
2023-03-19T00:01:06.701Z,45.31
2023-03-19T00:03:44.281Z,45.32
2023-03-19T00:06:23.009Z,45.42
2023-03-19T00:08:50.665Z,45.56
2023-03-19T00:11:17.955Z,45.64
2023-03-19T00:13:54.662Z,45.55
2023-03-19T00:16:22.172Z,45.58
2023-03-19T00:18:49.531Z,45.75
2023-03-19T00:21:20.853Z,45.83
2023-03-19T00:23:48.414Z,45.64
2023-03-19T00:26:16.248Z,45.93
2023-03-19T00:28:44.286Z,45.74
2023-03-19T00:31:14.439Z,45.94
2023-03-19T00:33:41.831Z,45.91
2023-03-19T00:36:30.440Z,46.14
2023-03-19T00:39:00.523Z,46.23
2023-03-19T00:41:29.186Z,46.23
2023-03-19T00:44:08.175Z,46.23
2023-03-19T00:46:40.281Z,46.37
2023-03-19T00:49:18.897Z,46.30
2023-03-19T00:51:47.832Z,46.50
2023-03-19T00:54:16.066Z,46.55
2023-03-19T00:56:45.985Z,46.74
2023-03-19T00:59:16.155Z,46.80
2023-03-19T01:01:44.324Z,46.84
2023-03-19T01:04:13.372Z,46.80
2023-03-19T01:06:41.011Z,46.76
2023-03-19T01:09:17.442Z,46.98
2023-03-19T01:11:44.957Z,47.10
2023-03-19T01:14:12.726Z,47.03
2023-03-19T01:16:40.046Z,47.20
2023-03-19T01:19:07.330Z,47.21
2023-03-19T01:21:36.638Z,47.40
2023-03-19T01:24:04.187Z,47.39
2023-03-19T01:26:51.511Z,47.32
2023-03-19T01:29:32.343Z,47.62
2023-03-19T01:32:07.628Z,47.67
2023-03-19T01:34:42.611Z,47.80
2023-03-19T01:37:12.819Z,48.06
2023-03-19T01:39:41.362Z,48.24
2023-03-19T01:42:18.198Z,48.00
2023-03-19T01:45:20.614Z,48.46
2023-03-19T01:48:08.558Z,48.44
2023-03-19T01:50:54.005Z,48.45
2023-03-19T01:53:41.563Z,48.63
2023-03-19T01:56:30.114Z,48.69
2023-03-19T01:59:08.251Z,48.88
2023-03-19T02:02:02.601Z,49.15
2023-03-19T02:04:31.910Z,49.23
2023-03-19T02:07:09.728Z,49.40
2023-03-19T02:09:38.138Z,49.33
2023-03-19T02:12:06.134Z,49.28
2023-03-19T02:14:33.936Z,49.53
2023-03-19T02:17:12.396Z,49.66
2023-03-19T02:19:48.550Z,49.67
2023-03-19T02:22:17.918Z,49.88
2023-03-19T02:24:52.990Z,49.87
2023-03-19T02:27:21.972Z,49.89
2023-03-19T02:29:51.787Z,50.11
2023-03-19T02:32:20.284Z,50.05
2023-03-19T02:34:48.037Z,50.08
2023-03-19T02:37:20.078Z,50.20
2023-03-19T02:39:55.210Z,50.21
2023-03-19T02:42:27.585Z,50.32
2023-03-19T02:44:54.931Z,50.21
2023-03-19T02:47:22.386Z,50.51
2023-03-19T02:49:49.960Z,50.33
2023-03-19T02:52:17.750Z,50.65
2023-03-19T02:54:46.983Z,50.55
2023-03-19T02:57:14.178Z,50.39
2023-03-19T02:59:41.523Z,50.62
2023-03-19T03:02:10.280Z,50.60
2023-03-19T03:04:38.449Z,50.72
2023-03-19T03:07:06.360Z,50.86
2023-03-19T03:09:33.487Z,50.83
2023-03-19T03:12:01.127Z,51.04
2023-03-19T03:14:28.773Z,50.81
2023-03-19T03:16:57.472Z,50.99
2023-03-19T03:19:25.081Z,50.98
2023-03-19T03:21:52.845Z,50.93
2023-03-19T03:24:19.992Z,51.13
2023-03-19T03:26:47.151Z,51.24
2023-03-19T03:29:15.773Z,50.98
2023-03-19T03:31:42.970Z,50.94
2023-03-19T03:34:10.331Z,51.28
2023-03-19T03:36:38.104Z,51.20
2023-03-19T03:39:05.490Z,51.19
2023-03-19T03:41:33.300Z,51.06
2023-03-19T03:44:00.850Z,51.15
2023-03-19T03:46:28.748Z,51.08
2023-03-19T03:48:56.522Z,51.24
2023-03-19T03:51:27.048Z,51.38
2023-03-19T03:53:54.275Z,51.14
2023-03-19T03:56:21.549Z,51.30
2023-03-19T03:58:48.824Z,51.30
2023-03-19T04:01:17.553Z,51.19
2023-03-19T04:03:45.973Z,51.29
2023-03-19T04:06:17.039Z,51.34
2023-03-19T04:08:44.893Z,51.23
2023-03-19T04:11:12.675Z,51.33
2023-03-19T04:13:39.896Z,51.35
2023-03-19T04:16:08.201Z,51.51
2023-03-19T04:18:36.143Z,51.62
2023-03-19T04:21:03.696Z,51.62
2023-03-19T04:23:31.165Z,51.63
2023-03-19T04:26:03.259Z,51.74
2023-03-19T04:28:31.360Z,51.68
2023-03-19T04:31:03.679Z,51.65
2023-03-19T04:33:32.371Z,51.76
2023-03-19T04:36:00.695Z,51.84
2023-03-19T04:38:29.151Z,51.88
2023-03-19T04:41:00.105Z,51.97
2023-03-19T04:43:28.745Z,52.08
2023-03-19T04:45:55.897Z,52.15
2023-03-19T04:48:23.274Z,52.13
2023-03-19T04:50:53.434Z,52.19
2023-03-19T04:53:21.855Z,52.35
2023-03-19T04:55:49.611Z,52.31
2023-03-19T04:58:18.297Z,52.28
2023-03-19T05:00:48.568Z,52.10
2023-03-19T05:03:18.962Z,52.16
2023-03-19T05:05:46.529Z,52.36
2023-03-19T05:08:14.068Z,52.17
2023-03-19T05:10:41.733Z,52.24
2023-03-19T05:13:09.544Z,52.14
2023-03-19T05:15:42.794Z,52.06
2023-03-19T05:18:10.881Z,52.03
2023-03-19T05:20:40.518Z,52.02
2023-03-19T05:23:11.917Z,51.90
2023-03-19T05:25:46.463Z,51.88
2023-03-19T05:28:16.556Z,51.25
2023-03-19T05:30:44.452Z,50.30
2023-03-19T05:33:18.865Z,49.23
2023-03-19T05:35:49.921Z,47.98
2023-03-19T05:38:22.363Z,46.17
2023-03-19T05:40:55.666Z,44.12
2023-03-19T05:43:33.670Z,42.36
2023-03-19T05:46:01.793Z,40.32
2023-03-19T05:48:30.625Z,39.46
2023-03-19T05:50:59.751Z,38.15
2023-03-19T05:53:32.198Z,36.47
2023-03-19T05:56:18.185Z,35.47
2023-03-19T05:59:11.561Z,34.14
2023-03-19T06:01:40.818Z,33.42
2023-03-19T06:04:08.487Z,32.30
2023-03-19T06:06:36.586Z,31.87
2023-03-19T06:09:03.743Z,31.90
2023-03-19T06:11:36.878Z,31.36
2023-03-19T06:14:24.467Z,30.28
2023-03-19T06:17:09.487Z,29.06
2023-03-19T06:19:37.205Z,28.58
2023-03-19T06:22:06.118Z,29.53
2023-03-19T06:24:33.901Z,29.76
2023-03-19T06:27:01.600Z,29.79
2023-03-19T06:29:29.339Z,29.99
2023-03-19T06:32:00.795Z,29.78
2023-03-19T06:34:39.979Z,28.73
2023-03-19T06:37:07.612Z,28.12
2023-03-19T06:39:35.135Z,27.71
2023-03-19T06:42:02.362Z,27.10
2023-03-19T06:44:30.087Z,26.17
2023-03-19T06:46:57.319Z,25.59
2023-03-19T06:49:25.065Z,24.83
2023-03-19T06:51:52.366Z,24.64
2023-03-19T06:54:19.503Z,24.53
2023-03-19T06:56:47.352Z,24.59
2023-03-19T06:59:14.525Z,24.18
2023-03-19T07:01:42.267Z,24.18
2023-03-19T07:04:09.556Z,24.23
2023-03-19T07:06:36.972Z,24.25
2023-03-19T07:09:04.378Z,24.57
2023-03-19T07:11:33.204Z,24.67
2023-03-19T07:14:02.395Z,24.34
2023-03-19T07:16:29.662Z,24.46
2023-03-19T07:18:57.060Z,24.87
2023-03-19T07:21:24.826Z,25.14
2023-03-19T07:23:52.196Z,25.65
2023-03-19T07:26:19.611Z,25.64
2023-03-19T07:28:48.591Z,25.57
2023-03-19T07:31:17.161Z,24.49
2023-03-19T07:33:44.330Z,23.65
2023-03-19T07:36:13.891Z,23.83
2023-03-19T07:38:41.127Z,24.30
2023-03-19T07:41:08.484Z,23.67
2023-03-19T07:43:36.077Z,22.94
2023-03-19T07:46:06.384Z,22.85
2023-03-19T07:48:33.740Z,22.18
2023-03-19T07:51:01.243Z,22.04
2023-03-19T07:53:28.434Z,21.82
2023-03-19T07:55:55.607Z,21.36
2023-03-19T07:58:23.106Z,21.33
2023-03-19T08:00:50.765Z,20.93
2023-03-19T08:03:18.151Z,20.64
2023-03-19T08:05:45.465Z,21.35
2023-03-19T08:08:13.678Z,21.49
2023-03-19T08:10:41.511Z,21.29
2023-03-19T08:13:09.121Z,20.62
2023-03-19T08:15:36.338Z,20.97
2023-03-19T08:18:05.321Z,20.64
2023-03-19T08:20:33.293Z,20.34
2023-03-19T08:23:01.001Z,20.79
2023-03-19T08:25:32.405Z,21.15
2023-03-19T08:27:59.525Z,21.32
2023-03-19T08:30:26.672Z,20.69
2023-03-19T08:32:53.971Z,21.02
2023-03-19T08:35:21.332Z,21.24
2023-03-19T08:37:48.376Z,20.65
2023-03-19T08:40:16.538Z,20.74
2023-03-19T08:42:45.316Z,21.19
2023-03-19T08:45:15.522Z,21.91
2023-03-19T08:47:43.168Z,21.84
2023-03-19T08:50:12.261Z,21.96
2023-03-19T08:52:39.726Z,22.01
2023-03-19T08:55:08.544Z,22.61
2023-03-19T08:57:36.777Z,22.54
2023-03-19T09:00:05.846Z,23.12
2023-03-19T09:02:32.986Z,23.27
2023-03-19T09:05:01.055Z,23.23
2023-03-19T09:07:28.157Z,22.84
2023-03-19T09:09:55.431Z,23.06
2023-03-19T09:12:22.587Z,23.26
2023-03-19T09:14:49.742Z,23.90
2023-03-19T09:17:18.513Z,24.00
2023-03-19T09:19:45.743Z,24.11
2023-03-19T09:22:12.890Z,24.17
2023-03-19T09:24:40.733Z,24.33
2023-03-19T09:27:08.526Z,24.20
2023-03-19T09:29:35.656Z,23.97
2023-03-19T09:32:02.837Z,23.72
2023-03-19T09:34:30.094Z,23.68
2023-03-19T09:36:57.947Z,23.36
2023-03-19T09:39:25.187Z,23.07
2023-03-19T09:42:04.647Z,23.19
2023-03-19T09:44:35.739Z,23.02
2023-03-19T09:47:14.166Z,22.84
2023-03-19T09:49:44.506Z,22.49
2023-03-19T09:52:22.484Z,22.42
2023-03-19T09:54:53.575Z,22.74
2023-03-19T09:57:21.992Z,22.90
2023-03-19T09:59:49.535Z,22.99
2023-03-19T10:02:39.127Z,22.84
2023-03-19T10:05:17.722Z,23.13
2023-03-19T10:07:59.530Z,22.91
2023-03-19T10:10:45.923Z,22.92
2023-03-19T10:13:26.742Z,23.28
2023-03-19T10:15:55.163Z,23.65
2023-03-19T10:18:26.524Z,24.19
2023-03-19T10:20:59.381Z,24.66
2023-03-19T10:23:41.965Z,25.01
2023-03-19T10:26:13.654Z,25.10
2023-03-19T10:28:43.687Z,24.76
2023-03-19T10:31:27.301Z,25.20
2023-03-19T10:34:05.001Z,25.46
2023-03-19T10:36:37.279Z,25.90
2023-03-19T10:39:07.866Z,26.22
2023-03-19T10:41:45.225Z,26.67
2023-03-19T10:44:23.017Z,26.83
2023-03-19T10:46:50.538Z,26.71
2023-03-19T10:49:18.351Z,26.26
2023-03-19T10:51:48.105Z,26.56
2023-03-19T10:54:25.440Z,26.36
2023-03-19T10:56:56.137Z,25.87
2023-03-19T10:59:33.170Z,25.54
2023-03-19T11:02:03.649Z,25.33
2023-03-19T11:04:32.570Z,24.51
2023-03-19T11:07:11.303Z,24.73
2023-03-19T11:09:40.141Z,25.50
2023-03-19T11:12:18.454Z,25.56
2023-03-19T11:14:48.576Z,25.88
2023-03-19T11:17:25.960Z,26.89
2023-03-19T11:19:55.742Z,27.22
2023-03-19T11:22:25.117Z,26.96
2023-03-19T11:25:01.940Z,26.55
2023-03-19T11:27:32.072Z,26.35
2023-03-19T11:29:59.625Z,26.52
2023-03-19T11:33:01.128Z,26.72
2023-03-19T11:35:31.473Z,25.99
2023-03-19T11:38:01.129Z,26.10
2023-03-19T11:40:38.824Z,25.92
2023-03-19T11:43:40.364Z,25.95
2023-03-19T11:46:15.945Z,25.85
2023-03-19T11:49:01.668Z,25.67
2023-03-19T11:51:34.136Z,25.70
2023-03-19T11:54:12.539Z,24.69
2023-03-19T11:56:47.412Z,24.57
2023-03-19T11:59:27.952Z,24.51
2023-03-19T12:02:19.380Z,25.47
2023-03-19T12:04:59.845Z,25.80
2023-03-19T12:07:34.525Z,25.70
2023-03-19T12:10:17.950Z,24.96
2023-03-19T12:12:51.266Z,25.29
2023-03-19T12:15:28.203Z,25.75
2023-03-19T12:18:07.428Z,26.12
2023-03-19T12:20:51.806Z,26.12
2023-03-19T12:23:35.925Z,26.58
2023-03-19T12:26:09.018Z,26.88
2023-03-19T12:28:45.862Z,27.49
2023-03-19T12:31:45.513Z,28.04
2023-03-19T12:34:25.023Z,28.49
2023-03-19T12:36:57.493Z,28.20
2023-03-19T12:39:31.473Z,28.15
2023-03-19T12:42:02.990Z,27.96
2023-03-19T12:44:35.780Z,27.44
2023-03-19T12:47:08.254Z,27.48
2023-03-19T12:49:42.484Z,27.97
2023-03-19T12:52:21.465Z,28.42
2023-03-19T12:54:52.972Z,28.49
2023-03-19T12:57:24.467Z,28.91
2023-03-19T13:00:00.746Z,28.85
2023-03-19T13:02:36.800Z,28.72
2023-03-19T13:05:10.336Z,28.89
2023-03-19T13:07:48.918Z,28.77
2023-03-19T13:10:21.818Z,28.85
2023-03-19T13:12:51.688Z,28.73
2023-03-19T13:15:25.292Z,28.76
2023-03-19T13:18:04.417Z,28.80
2023-03-19T13:20:46.878Z,28.96
2023-03-19T13:23:21.818Z,28.94
2023-03-19T13:26:00.359Z,29.25
2023-03-19T13:28:31.876Z,28.98
2023-03-19T13:31:07.993Z,28.98
2023-03-19T13:33:37.636Z,29.48
2023-03-19T13:36:09.170Z,29.69
2023-03-19T13:38:42.678Z,29.66
2023-03-19T13:41:47.361Z,29.71
2023-03-19T13:44:33.689Z,29.60
2023-03-19T13:47:04.529Z,29.69
2023-03-19T13:49:36.766Z,29.96
2023-03-19T13:52:30.162Z,30.05
2023-03-19T13:55:19.001Z,29.98
2023-03-19T13:58:12.424Z,29.81
2023-03-19T14:01:10.592Z,29.76
2023-03-19T14:03:41.374Z,29.80
2023-03-19T14:06:34.940Z,30.01
2023-03-19T14:09:03.079Z,30.24
2023-03-19T14:11:33.676Z,30.45
2023-03-19T14:14:06.172Z,30.73
2023-03-19T14:16:35.456Z,30.76
2023-03-19T14:19:05.385Z,30.77
2023-03-19T14:21:46.614Z,30.78
2023-03-19T14:24:55.902Z,30.91
2023-03-19T14:27:29.603Z,31.13
2023-03-19T14:30:12.499Z,31.41
2023-03-19T14:32:43.949Z,31.40
2023-03-19T14:35:20.412Z,31.85
2023-03-19T14:37:52.451Z,31.99
2023-03-19T14:40:26.025Z,31.60
2023-03-19T14:43:04.816Z,31.62
2023-03-19T14:45:56.294Z,31.91
2023-03-19T14:49:13.431Z,32.06
2023-03-19T14:52:01.207Z,32.11
2023-03-19T14:54:37.193Z,31.95
2023-03-19T14:57:17.320Z,31.96
2023-03-19T14:59:44.733Z,32.18
2023-03-19T15:02:24.050Z,32.78
2023-03-19T15:04:52.407Z,32.48
2023-03-19T15:07:25.247Z,32.42
2023-03-19T15:09:58.765Z,32.40
2023-03-19T15:13:09.939Z,32.67
2023-03-19T15:15:49.910Z,32.79
2023-03-19T15:18:20.896Z,32.79
2023-03-19T15:20:54.777Z,32.77
2023-03-19T15:23:27.175Z,32.68
2023-03-19T15:25:58.241Z,32.61
2023-03-19T15:28:28.184Z,32.63
2023-03-19T15:31:26.776Z,32.71
2023-03-19T15:33:53.538Z,32.73
2023-03-19T15:36:26.586Z,32.82
2023-03-19T15:38:58.657Z,32.90
2023-03-19T15:41:29.036Z,32.93
2023-03-19T15:43:57.577Z,32.94
2023-03-19T15:46:28.450Z,33.03
2023-03-19T15:49:00.010Z,33.11
2023-03-19T15:51:29.416Z,33.16
2023-03-19T15:53:57.483Z,33.23
2023-03-19T15:56:25.119Z,33.27
2023-03-19T15:58:54.140Z,33.34
2023-03-19T16:01:22.128Z,33.51
2023-03-19T16:03:56.723Z,33.57
2023-03-19T16:06:27.606Z,33.59
2023-03-19T16:08:57.019Z,33.89
2023-03-19T16:11:34.892Z,33.86
2023-03-19T16:14:03.604Z,34.06
2023-03-19T16:16:34.195Z,34.11
2023-03-19T16:19:02.239Z,34.26
2023-03-19T16:21:36.256Z,34.35
2023-03-19T16:24:14.940Z,34.59
2023-03-19T16:26:43.606Z,34.58
2023-03-19T16:29:24.107Z,34.76
2023-03-19T16:31:54.706Z,34.78
2023-03-19T16:34:46.729Z,35.00
2023-03-19T16:37:35.548Z,35.03
2023-03-19T16:40:05.296Z,35.06
2023-03-19T16:42:42.432Z,35.14
2023-03-19T16:45:26.632Z,35.16
2023-03-19T16:47:55.612Z,35.27
2023-03-19T16:50:29.630Z,35.38
2023-03-19T16:52:57.396Z,35.43
2023-03-19T16:55:27.484Z,35.50
2023-03-19T16:57:59.330Z,35.80
2023-03-19T17:00:30.704Z,35.80
2023-03-19T17:02:59.070Z,35.83
2023-03-19T17:05:28.251Z,36.06
2023-03-19T17:07:56.481Z,36.20
2023-03-19T17:10:25.762Z,36.35
2023-03-19T17:12:56.321Z,36.55
2023-03-19T17:15:28.459Z,36.58
2023-03-19T17:17:55.991Z,36.68
2023-03-19T17:20:29.381Z,36.57
2023-03-19T17:22:56.524Z,36.72
2023-03-19T17:25:25.044Z,36.69
2023-03-19T17:27:52.402Z,36.81
2023-03-19T17:30:20.320Z,36.92
2023-03-19T17:32:51.812Z,37.05
2023-03-19T17:35:21.529Z,37.18
2023-03-19T17:37:50.022Z,37.33
2023-03-19T17:40:27.137Z,37.58
2023-03-19T17:42:55.058Z,37.50
2023-03-19T17:45:27.756Z,37.59
2023-03-19T17:47:57.932Z,37.67
2023-03-19T17:50:27.741Z,37.62
2023-03-19T17:52:55.702Z,37.75
2023-03-19T17:55:25.312Z,37.64
2023-03-19T17:57:53.311Z,37.67
2023-03-19T18:00:22.884Z,37.73
2023-03-19T18:02:52.220Z,37.89
2023-03-19T18:05:21.896Z,37.81
2023-03-19T18:07:50.582Z,37.72
2023-03-19T18:10:21.135Z,37.80
2023-03-19T18:12:49.503Z,37.89
2023-03-19T18:15:17.982Z,37.91
2023-03-19T18:17:50.303Z,37.98
2023-03-19T18:20:18.935Z,38.00
2023-03-19T18:22:55.468Z,38.04
2023-03-19T18:25:25.827Z,38.18
2023-03-19T18:28:13.293Z,38.20
2023-03-19T18:30:43.009Z,38.19
2023-03-19T18:33:16.985Z,38.26
2023-03-19T18:35:46.409Z,38.46
2023-03-19T18:38:20.035Z,38.44
2023-03-19T18:40:47.451Z,38.60
2023-03-19T18:43:17.845Z,38.57
2023-03-19T18:45:46.952Z,38.68
2023-03-19T18:48:23.219Z,38.72
2023-03-19T18:50:50.828Z,38.73
2023-03-19T18:53:18.697Z,38.80
2023-03-19T18:55:53.802Z,38.92
2023-03-19T18:58:24.153Z,38.91
2023-03-19T19:00:52.446Z,38.94
2023-03-19T19:03:21.619Z,39.05
2023-03-19T19:05:49.748Z,39.19
2023-03-19T19:08:20.361Z,39.18
2023-03-19T19:10:51.859Z,39.37
2023-03-19T19:13:23.491Z,39.28
2023-03-19T19:15:52.884Z,39.44
2023-03-19T19:18:23.152Z,39.45
2023-03-19T19:20:52.473Z,39.34
2023-03-19T19:23:20.548Z,39.46
2023-03-19T19:25:51.056Z,39.38
2023-03-19T19:28:26.943Z,39.32
2023-03-19T19:30:55.029Z,39.36
2023-03-19T19:33:25.430Z,39.51
2023-03-19T19:35:53.284Z,39.55
2023-03-19T19:38:20.633Z,39.60
2023-03-19T19:40:51.024Z,39.76
2023-03-19T19:43:21.114Z,39.87
2023-03-19T19:45:50.393Z,39.99
2023-03-19T19:48:21.010Z,40.10
2023-03-19T19:50:51.157Z,40.21
2023-03-19T19:53:18.937Z,40.46
2023-03-19T19:55:47.026Z,40.55
2023-03-19T19:58:21.393Z,40.55
2023-03-19T20:01:02.409Z,40.66
2023-03-19T20:03:32.629Z,40.78
2023-03-19T20:06:01.578Z,40.78
2023-03-19T20:08:28.997Z,40.92
2023-03-19T20:10:57.326Z,40.84
2023-03-19T20:13:27.759Z,40.92
2023-03-19T20:15:57.236Z,40.86
2023-03-19T20:18:29.770Z,40.89
2023-03-19T20:20:58.267Z,40.97
2023-03-19T20:23:26.989Z,41.01
2023-03-19T20:25:55.181Z,40.90
2023-03-19T20:28:25.495Z,41.04
2023-03-19T20:30:54.908Z,40.93
2023-03-19T20:33:25.940Z,41.02
2023-03-19T20:35:53.569Z,41.02
2023-03-19T20:38:20.937Z,41.17
2023-03-19T20:40:51.282Z,41.21
2023-03-19T20:43:28.332Z,41.35
2023-03-19T20:45:56.867Z,41.32
2023-03-19T20:48:24.299Z,41.41
2023-03-19T20:50:52.364Z,41.44
2023-03-19T20:53:19.753Z,41.54
2023-03-19T20:55:56.653Z,41.60
2023-03-19T20:58:28.119Z,41.68
2023-03-19T21:00:56.530Z,41.80
2023-03-19T21:03:34.072Z,41.92
2023-03-19T21:06:06.831Z,41.91
2023-03-19T21:08:37.329Z,41.90
2023-03-19T21:11:32.963Z,42.01
2023-03-19T21:14:00.347Z,42.05
2023-03-19T21:16:30.770Z,42.10
2023-03-19T21:18:59.089Z,42.14
2023-03-19T21:21:32.049Z,42.25
2023-03-19T21:24:02.650Z,42.25
2023-03-19T21:26:30.286Z,42.36
2023-03-19T21:29:04.125Z,42.34
2023-03-19T21:31:34.468Z,42.33
2023-03-19T21:34:02.088Z,42.52
2023-03-19T21:36:29.912Z,42.54
2023-03-19T21:38:58.975Z,42.62
2023-03-19T21:41:30.284Z,42.65
2023-03-19T21:44:00.986Z,42.88
2023-03-19T21:46:30.870Z,42.89
2023-03-19T21:49:13.805Z,42.92
2023-03-19T21:51:42.780Z,42.85
2023-03-19T21:54:10.109Z,43.02
2023-03-19T21:56:41.821Z,42.92
2023-03-19T21:59:15.198Z,42.99
2023-03-19T22:01:42.591Z,43.05
2023-03-19T22:04:09.840Z,43.07
2023-03-19T22:06:37.735Z,43.16
2023-03-19T22:09:05.682Z,43.23
2023-03-19T22:11:36.535Z,43.27
2023-03-19T22:14:07.818Z,43.35
2023-03-19T22:16:38.623Z,43.36
2023-03-19T22:19:12.520Z,43.33
2023-03-19T22:21:39.650Z,43.42
2023-03-19T22:24:11.260Z,43.45
2023-03-19T22:26:43.404Z,43.48
2023-03-19T22:29:25.528Z,43.54
2023-03-19T22:32:18.388Z,43.63
2023-03-19T22:34:46.151Z,43.58
2023-03-19T22:37:27.444Z,43.73
2023-03-19T22:39:58.267Z,43.76
2023-03-19T22:42:33.408Z,43.84
2023-03-19T22:45:01.070Z,43.94
2023-03-19T22:47:49.074Z,44.04
2023-03-19T22:50:28.575Z,44.10
2023-03-19T22:52:57.248Z,44.17
2023-03-19T22:55:37.050Z,44.34
2023-03-19T22:58:04.454Z,44.43
2023-03-19T23:00:32.102Z,44.58
2023-03-19T23:03:00.995Z,44.59
2023-03-19T23:05:36.303Z,44.74
2023-03-19T23:08:06.168Z,44.88
2023-03-19T23:10:36.065Z,44.95
2023-03-19T23:13:03.244Z,45.09
2023-03-19T23:15:33.032Z,45.17
2023-03-19T23:18:02.382Z,45.24
2023-03-19T23:20:33.946Z,45.39
2023-03-19T23:23:02.323Z,45.46
2023-03-19T23:25:31.558Z,45.55
2023-03-19T23:28:02.536Z,45.61
2023-03-19T23:30:32.378Z,45.74
2023-03-19T23:33:01.316Z,45.67
2023-03-19T23:35:30.224Z,45.76
2023-03-19T23:37:58.180Z,45.83
2023-03-19T23:40:28.239Z,45.92
2023-03-19T23:42:56.710Z,45.90
2023-03-19T23:45:35.450Z,45.89
2023-03-19T23:48:06.216Z,46.05
2023-03-19T23:50:33.982Z,46.00
2023-03-19T23:53:01.849Z,45.96
2023-03-19T23:55:30.126Z,46.13
2023-03-19T23:57:58.354Z,46.21
